Walcott, Arkansas
Current Conditions -  °F | °C
As of 4:15 AM on Sunday 25 Jan 2015 (Local Time) from K4M9 Reporting Station
Broken Clouds Broken Clouds  
Wind Chill: 36°   Ceiling: 10000
Heat Index: 43°   Visibility: 10mi
Dew Point: 36°   Wind: 14mph
Humidity: 76%   Direction: 210°SSW
Pressure: 29.73"   Gusts: NA
Location:  36.04°N, 90.67°W
Report Text: K4M9 251015Z AUTO 21012KT 10SM BKN100 06/02 A2973 RMK AO2
Loading
Personal Weather Stations






























Interactive Weather Map New forecast layout! Learn more

10-Day Weather Forecast

Advertisements
Track Severe Weather on mobile